Lake Worth, FL (33460)

2:02 PM EDT on May 06, 2015 (GMT -0400)
NOS_NWLON | | Change Station
CLOSE
Current Station
Personal Weather Station
Location: Lake Worth, FL
Elevation: 0 ft
Nearby Weather Stations

Elev 0 ft 26.61 °N, 80.03 °W | Updated 44 minutes ago

Overcast
Overcast
75 °F
Feels Like 76 °F
N
15
Wind Variable Wind from North
Gusts 17.0 mph

Today
High -- | Low -- °F
--% Chance of Precip.
Yesterday
High -- | Low -- °F
Precip. -- in
6:38 AM 7:55 PM
Waning Gibbous, 93% visible
Pressure 30.02 in
Visibility 8.0 miles
Clouds Mostly Cloudy 2700 ft
Mostly Cloudy 3300 ft
Mostly Cloudy 4400 ft
Heat Index 76 °F
Dew Point 67 °F
Humidity 79%
Rainfall in
Snow Depth Not available.
UV 8 out of 12
Pollen 4.50 out of 12
Air Quality Not available.
Flu Activity Local Activity
METAR KPBI 061753Z 36009KT 8SM BKN027 BKN033 BKN044 27/19 A3002 RMK AO2 SLP166 60000 T02670189 10272 20211 58008

More Conditions Fewer Conditions

Pressure 30.02 in
Visibility 8.0 miles
Clouds Mostly Cloudy 2700 ft
Mostly Cloudy 3300 ft
Mostly Cloudy 4400 ft
Heat Index 76 °F
Dew Point 67 °F
Humidity 79%
Rainfall in
Snow Depth Not available.
UV 8 out of 12
Pollen 4.50 out of 12
Air Quality Not available.
Flu Activity Local Activity
METAR KPBI 061753Z 36009KT 8SM BKN027 BKN033 BKN044 27/19 A3002 RMK AO2 SLP166 60000 T02670189 10272 20211 58008

More Conditions Fewer Conditions

The National Hurricane Center is watching an area of disturbed weather just east of Florida for development. There is a 60% chance of intensification over the next 2 days and this system could become the first named tropical storm of the year. Many atmospheric models take the system close to the coasts of South Carolina and North Carolina later this week, but will have to wait for more information to be more confident in its track.

10-Day Weather Forecast

Almanac

Astronomy

May. 06, 2015 Rise Set
Actual Time
Civil Twilight
Nautical Twilight
Astronomical Twilight
Moon
Length of Visible Light
Length of Day
Tomorrow will be .
, % of the Moon is Illuminated

Today's Extremes

State Highs State Lows

Community

WunderPhotos

Upload Photos

1,818,965 photos uploaded!

WunderBlogs® & News

Nearby

Air Quality

  Air Quality AQ Index Pollutant
Not available.

Snow Depth

Station Depth Elevation

Earthquake Activity

City Distance Mag. Time & Date
Minimum magnitude displayed is 2.5.

Coastal Water Temperatures

Place Temperature

Stations

Nearby Weather Stations

Station Location Temp. Windchill Dew Point Humidity Wind Precip. Elev Updated Type